Balfour, ND

6:50 AM CDT on July 26, 2016 (GMT -0500)
KD0ASL WX | | Change Station

Elev 1539 ft 48.22 °N, 100.91 °W | Updated 11 minutes ago

Clear
Clear
59.5 °F
Feels Like 59.5 °F
N
1.7
Wind Variable Wind from North

Today
High -- | Low -- °F
--% Chance of Precip.
Yesterday
High -- | Low -- °F
Precip. -- in
Pressure 30.01 in
Visibility 5.0 miles
Clouds Clear
Dew Point 57 °F
Humidity 90%
Rainfall 0.00 in
Snow Depth Not available.
6:11 AM 9:24 PM
Waning Gibbous, 55% visible
METAR K5H4 261135Z AUTO 04004KT 5SM CLR 16/16 A3001 RMK AO2 P0033 PWINO PNO
Pressure 30.01 in
Visibility 5.0 miles
Clouds Clear
Dew Point 57 °F
Humidity 90%
Rainfall 0.00 in
Snow Depth Not available.
6:11 AM 9:24 PM
Waning Gibbous, 55% visible
METAR K5H4 261135Z AUTO 04004KT 5SM CLR 16/16 A3001 RMK AO2 P0033 PWINO PNO

10-Day Weather Forecast

Almanac

Astronomy

Jul. 26, 2016 Rise Set
Actual Time
Civil Twilight
Nautical Twilight
Astronomical Twilight
Moon
Length of Visible Light
Length of Day
Tomorrow will be .
, % of the Moon is Illuminated

Today's Extremes

State Highs State Lows

Community

WunderPhotos

Upload Photos

1,927,577 photos uploaded!

WunderBlog® & News

Nearby

Air Quality

  Air Quality AQ Index Pollutant
Not available.

Snow Depth

Station Depth Elevation

Earthquake Activity

City Distance Mag. Time & Date
Minimum magnitude displayed is 2.5.

Coastal Water Temperatures

Place Temperature

Stations

Nearby Weather Stations

Station Location Temp. Windchill Dew Point Humidity Wind Precip. Elev Updated Type
                   

Watches & Warnings

There are currently no watches in effect.